createdAt,value
2019-05-06T00:01:04.762Z,94.30
2019-05-06T00:03:34.364Z,94.20
2019-05-06T00:06:03.975Z,94.20
2019-05-06T00:08:34.542Z,94.50
2019-05-06T00:11:04.911Z,94.40
2019-05-06T00:13:34.333Z,94.20
2019-05-06T00:16:04.054Z,94.40
2019-05-06T00:18:34.246Z,94.40
2019-05-06T00:21:04.722Z,94.20
2019-05-06T00:23:38.575Z,93.90
2019-05-06T00:26:25.133Z,93.80
2019-05-06T00:28:57.241Z,93.90
2019-05-06T00:31:26.116Z,94.00
2019-05-06T00:33:55.004Z,93.40
2019-05-06T00:36:23.895Z,93.70
2019-05-06T00:38:55.670Z,93.90
2019-05-06T00:41:27.561Z,94.10
2019-05-06T00:43:56.371Z,94.40
2019-05-06T00:46:25.274Z,94.30
2019-05-06T00:48:54.469Z,94.50
2019-05-06T00:51:24.184Z,94.90
2019-05-06T00:54:05.169Z,95.00
2019-05-06T00:56:34.290Z,95.00
2019-05-06T00:59:03.810Z,95.50
2019-05-06T01:01:34.483Z,95.70
2019-05-06T01:04:04.939Z,95.80
2019-05-06T01:06:34.453Z,95.70
2019-05-06T01:09:06.827Z,95.70
2019-05-06T01:11:35.698Z,96.20
2019-05-06T01:14:14.703Z,96.50
2019-05-06T01:16:43.981Z,96.70
2019-05-06T01:19:14.177Z,96.70
2019-05-06T01:21:44.749Z,96.90
2019-05-06T01:24:14.711Z,97.10
2019-05-06T01:26:44.352Z,97.00
2019-05-06T01:29:14.590Z,97.20
2019-05-06T01:31:45.961Z,97.20
2019-05-06T01:34:14.234Z,97.30
2019-05-06T01:36:43.723Z,97.30
2019-05-06T01:39:44.094Z,97.60
2019-05-06T01:42:41.550Z,98.10
2019-05-06T01:45:11.399Z,98.10
2019-05-06T01:47:40.192Z,98.40
2019-05-06T01:50:09.450Z,98.20
2019-05-06T01:52:38.230Z,98.40
2019-05-06T01:55:07.192Z,98.40
2019-05-06T01:57:36.121Z,98.30
2019-05-06T02:00:07.366Z,98.60
2019-05-06T02:02:36.165Z,98.50
2019-05-06T02:05:05.655Z,98.50
2019-05-06T02:07:34.932Z,98.90
2019-05-06T02:10:04.615Z,98.80
2019-05-06T02:12:34.221Z,98.80
2019-05-06T02:15:04.031Z,99.10
2019-05-06T02:17:34.519Z,99.20
2019-05-06T02:20:04.354Z,99.40
2019-05-06T02:23:04.327Z,99.30
2019-05-06T02:25:40.250Z,99.40
2019-05-06T02:28:09.110Z,99.70
2019-05-06T02:30:57.024Z,99.50
2019-05-06T02:33:51.259Z,99.40
2019-05-06T02:36:45.397Z,99.50
2019-05-06T02:39:14.114Z,99.60
2019-05-06T02:41:43.270Z,99.90
2019-05-06T02:44:13.763Z,99.70
2019-05-06T02:46:44.938Z,99.70
2019-05-06T02:49:23.859Z,99.90
2019-05-06T02:51:53.552Z,99.90
2019-05-06T02:54:23.481Z,99.90
2019-05-06T02:56:53.291Z,99.90
2019-05-06T02:59:24.081Z,99.90
2019-05-06T03:01:53.813Z,99.90
2019-05-06T03:04:23.629Z,99.90
2019-05-06T03:06:53.423Z,99.90
2019-05-06T03:09:23.423Z,99.90
2019-05-06T03:11:54.003Z,99.90
2019-05-06T03:14:23.594Z,99.90
2019-05-06T03:16:54.020Z,99.90
2019-05-06T03:19:24.217Z,99.90
2019-05-06T03:22:13.300Z,99.90
2019-05-06T03:24:46.807Z,99.90
2019-05-06T03:27:16.345Z,99.90
2019-05-06T03:29:46.062Z,99.90
2019-05-06T03:32:22.707Z,99.90
2019-05-06T03:35:09.005Z,99.90
2019-05-06T03:37:17.800Z,99.90
2019-05-06T03:39:46.594Z,99.90
2019-05-06T03:42:16.587Z,99.90
2019-05-06T03:44:48.675Z,99.90
2019-05-06T03:47:36.554Z,99.90
2019-05-06T03:50:05.941Z,99.90
2019-05-06T03:52:34.768Z,99.90
2019-05-06T03:55:04.164Z,99.90
2019-05-06T03:57:36.248Z,99.90
2019-05-06T04:00:05.931Z,99.90
2019-05-06T04:02:39.797Z,99.90
2019-05-06T04:05:08.490Z,99.90
2019-05-06T04:07:37.588Z,99.90
2019-05-06T04:10:06.731Z,99.90
2019-05-06T04:12:37.376Z,99.90
2019-05-06T04:15:07.103Z,99.90
2019-05-06T04:17:53.484Z,99.90
2019-05-06T04:20:28.794Z,99.90
2019-05-06T04:23:13.525Z,99.90
2019-05-06T04:26:04.894Z,99.90
2019-05-06T04:28:35.063Z,99.90
2019-05-06T04:31:04.957Z,99.70
2019-05-06T04:33:34.540Z,99.90
2019-05-06T04:36:03.878Z,99.90
2019-05-06T04:38:33.864Z,99.60
2019-05-06T04:41:03.233Z,99.60
2019-05-06T04:43:33.707Z,99.70
2019-05-06T04:46:03.437Z,99.50
2019-05-06T04:48:32.876Z,99.30
2019-05-06T04:51:03.337Z,99.40
2019-05-06T04:53:33.780Z,99.30
2019-05-06T04:56:03.997Z,99.40
2019-05-06T04:58:33.702Z,99.00
2019-05-06T05:01:04.081Z,98.70
2019-05-06T05:03:33.700Z,98.70
2019-05-06T05:06:05.709Z,98.70
2019-05-06T05:08:37.294Z,98.80
2019-05-06T05:11:26.458Z,98.60
2019-05-06T05:14:06.461Z,98.30
2019-05-06T05:16:42.094Z,98.00
2019-05-06T05:19:12.160Z,97.60
2019-05-06T05:21:42.847Z,97.40
2019-05-06T05:24:12.350Z,97.40
2019-05-06T05:26:44.106Z,96.70
2019-05-06T05:29:12.665Z,96.50
2019-05-06T05:31:43.549Z,96.50
2019-05-06T05:34:12.754Z,96.20
2019-05-06T05:36:42.664Z,95.90
2019-05-06T05:39:12.541Z,95.90
2019-05-06T05:41:42.943Z,96.00
2019-05-06T05:44:16.681Z,95.60
2019-05-06T05:46:45.738Z,95.60
2019-05-06T05:49:25.885Z,95.40
2019-05-06T05:51:54.813Z,95.40
2019-05-06T05:54:24.494Z,95.30
2019-05-06T05:56:53.453Z,94.80
2019-05-06T05:59:23.167Z,94.30
2019-05-06T06:01:53.136Z,94.40
2019-05-06T06:04:24.383Z,94.20
2019-05-06T06:06:53.577Z,94.10
2019-05-06T06:09:25.085Z,94.10
2019-05-06T06:11:56.003Z,94.00
2019-05-06T06:14:55.735Z,93.90
2019-05-06T06:17:49.366Z,94.30
2019-05-06T06:20:36.103Z,93.20
2019-05-06T06:23:22.969Z,93.10
2019-05-06T06:25:52.964Z,92.80
2019-05-06T06:28:23.276Z,92.40
2019-05-06T06:31:14.226Z,92.40
2019-05-06T06:33:43.123Z,92.50
2019-05-06T06:36:27.550Z,92.50
2019-05-06T06:39:02.112Z,91.80
2019-05-06T06:41:32.302Z,92.30
2019-05-06T06:44:04.453Z,92.30
2019-05-06T06:46:33.422Z,91.60
2019-05-06T06:49:03.202Z,91.20
2019-05-06T06:51:33.047Z,91.50
2019-05-06T06:54:02.631Z,91.00
2019-05-06T06:56:44.968Z,90.70
2019-05-06T06:59:31.756Z,90.20
2019-05-06T07:02:09.186Z,90.40
2019-05-06T07:04:43.825Z,89.80
2019-05-06T07:07:43.078Z,89.90
2019-05-06T07:10:03.361Z,88.50
2019-05-06T07:12:32.798Z,87.20
2019-05-06T07:15:02.456Z,86.00
2019-05-06T07:17:32.809Z,83.20
2019-05-06T07:20:05.178Z,83.10
2019-05-06T07:22:37.269Z,81.90
2019-05-06T07:25:08.911Z,80.10
2019-05-06T07:27:37.866Z,79.40
2019-05-06T07:30:07.626Z,77.60
2019-05-06T07:32:36.564Z,75.20
2019-05-06T07:35:06.316Z,76.80
2019-05-06T07:37:35.380Z,73.70
2019-05-06T07:40:05.235Z,73.30
2019-05-06T07:42:40.393Z,73.20
2019-05-06T07:45:24.491Z,69.00
2019-05-06T07:47:56.398Z,71.50
2019-05-06T07:50:25.305Z,70.10
2019-05-06T07:53:10.010Z,66.00
2019-05-06T07:55:38.976Z,58.20
2019-05-06T07:58:07.920Z,61.60
2019-05-06T08:00:36.943Z,60.00
2019-05-06T08:03:06.102Z,60.00
2019-05-06T08:05:35.046Z,56.20
2019-05-06T08:08:04.350Z,57.10
2019-05-06T08:10:33.486Z,55.10
2019-05-06T08:13:02.939Z,56.00
2019-05-06T08:15:32.833Z,56.70
2019-05-06T08:18:03.520Z,56.70
2019-05-06T08:20:38.659Z,57.20
2019-05-06T08:23:23.850Z,58.90
2019-05-06T08:26:12.614Z,58.70
2019-05-06T08:28:41.031Z,59.90
2019-05-06T08:31:05.851Z,60.10
2019-05-06T08:33:35.253Z,60.80
2019-05-06T08:36:11.685Z,59.80
2019-05-06T08:39:08.382Z,60.00
2019-05-06T08:41:37.326Z,59.20
2019-05-06T08:44:06.429Z,57.20
2019-05-06T08:46:35.514Z,55.70
2019-05-06T08:49:04.878Z,57.70
2019-05-06T08:51:43.507Z,57.10
2019-05-06T08:54:25.339Z,58.20
2019-05-06T08:56:54.118Z,58.90
2019-05-06T08:59:24.042Z,58.10
2019-05-06T09:01:53.604Z,57.20
2019-05-06T09:04:22.894Z,58.10
2019-05-06T09:06:53.446Z,58.10
2019-05-06T09:09:22.626Z,56.90
2019-05-06T09:11:53.445Z,57.10
2019-05-06T09:14:23.231Z,57.80
2019-05-06T09:16:53.878Z,55.60
2019-05-06T09:19:23.519Z,57.10
2019-05-06T09:21:53.340Z,56.90
2019-05-06T09:24:23.229Z,55.70
2019-05-06T09:27:15.423Z,56.10
2019-05-06T09:29:47.284Z,57.50
2019-05-06T09:32:39.175Z,58.00
2019-05-06T09:35:08.749Z,58.40
2019-05-06T09:37:37.634Z,58.60
2019-05-06T09:40:07.619Z,69.50
2019-05-06T09:42:36.483Z,70.40
2019-05-06T09:45:05.897Z,73.50
2019-05-06T09:47:46.503Z,72.60
2019-05-06T09:50:17.625Z,71.20
2019-05-06T09:52:46.506Z,69.10
2019-05-06T09:55:23.786Z,74.20
2019-05-06T09:58:03.166Z,68.80
2019-05-06T10:00:33.041Z,66.80
2019-05-06T10:03:03.104Z,66.30
2019-05-06T10:05:32.580Z,64.80
2019-05-06T10:08:03.256Z,66.40
2019-05-06T10:10:32.803Z,64.30
2019-05-06T10:13:02.750Z,65.20
2019-05-06T10:15:32.705Z,60.80
2019-05-06T10:18:08.405Z,64.30
2019-05-06T10:20:42.742Z,55.50
2019-05-06T10:23:10.962Z,47.70
2019-05-06T10:25:39.939Z,51.60
2019-05-06T10:28:28.602Z,50.80
2019-05-06T10:30:57.921Z,52.30
2019-05-06T10:33:28.154Z,52.80
2019-05-06T10:36:02.550Z,51.90
2019-05-06T10:38:45.501Z,53.60
2019-05-06T10:41:19.353Z,54.60
2019-05-06T10:43:57.914Z,55.90
2019-05-06T10:46:26.861Z,56.50
2019-05-06T10:48:56.067Z,56.90
2019-05-06T10:51:32.395Z,55.90
2019-05-06T10:54:03.177Z,55.90
2019-05-06T10:57:02.273Z,59.80
2019-05-06T10:59:32.654Z,53.70
2019-05-06T11:02:12.510Z,52.10
2019-05-06T11:04:42.602Z,50.70
2019-05-06T11:07:12.410Z,50.60
2019-05-06T11:09:42.805Z,48.80
2019-05-06T11:12:12.457Z,49.00
2019-05-06T11:14:41.582Z,49.20
2019-05-06T11:17:12.473Z,49.90
2019-05-06T11:19:42.737Z,48.20
2019-05-06T11:22:12.831Z,49.80
2019-05-06T11:24:42.165Z,48.50
2019-05-06T11:27:25.271Z,48.20
2019-05-06T11:29:43.724Z,48.70
2019-05-06T11:32:23.760Z,47.60
2019-05-06T11:35:12.184Z,47.80
2019-05-06T11:37:50.517Z,48.30
2019-05-06T11:40:18.108Z,43.70
2019-05-06T11:42:46.963Z,40.70
2019-05-06T11:45:16.125Z,37.60
2019-05-06T11:47:44.987Z,34.00
2019-05-06T11:50:13.954Z,25.80
2019-05-06T11:52:43.510Z,29.00
2019-05-06T11:55:16.884Z,29.30
2019-05-06T11:57:44.911Z,30.50
2019-05-06T12:00:17.469Z,31.10
2019-05-06T12:02:48.602Z,33.30
2019-05-06T12:05:16.976Z,38.80
2019-05-06T12:08:01.033Z,40.10
2019-05-06T12:10:16.417Z,40.60
2019-05-06T12:12:45.290Z,40.60
2019-05-06T12:15:14.348Z,36.50
2019-05-06T12:17:43.134Z,31.30
2019-05-06T12:20:13.096Z,28.80
2019-05-06T12:22:42.444Z,27.80
2019-05-06T12:25:15.290Z,29.60
2019-05-06T12:27:45.459Z,31.00
2019-05-06T12:30:23.206Z,34.50
2019-05-06T12:33:13.061Z,36.10
2019-05-06T12:35:45.586Z,36.40
2019-05-06T12:38:27.524Z,39.10
2019-05-06T12:40:49.604Z,39.50
2019-05-06T12:43:36.988Z,41.50
2019-05-06T12:46:17.337Z,41.00
2019-05-06T12:48:46.217Z,41.10
2019-05-06T12:51:15.006Z,42.00
2019-05-06T12:53:43.921Z,42.10
2019-05-06T12:56:12.727Z,41.00
2019-05-06T12:58:43.994Z,41.00
2019-05-06T13:01:13.693Z,40.90
2019-05-06T13:03:53.191Z,41.80
2019-05-06T13:06:26.343Z,40.70
2019-05-06T13:09:01.355Z,41.80
2019-05-06T13:11:24.879Z,40.40
2019-05-06T13:14:00.255Z,43.80
2019-05-06T13:16:24.217Z,43.30
2019-05-06T13:18:54.955Z,43.40
2019-05-06T13:21:23.602Z,44.00
2019-05-06T13:23:56.606Z,44.50
2019-05-06T13:26:26.132Z,45.30
2019-05-06T13:28:59.055Z,44.50
2019-05-06T13:31:32.456Z,45.10
2019-05-06T13:34:05.095Z,46.20
2019-05-06T13:36:34.183Z,45.70
2019-05-06T13:39:14.010Z,45.30
2019-05-06T13:41:34.273Z,45.30
2019-05-06T13:44:13.138Z,46.10
2019-05-06T13:46:52.586Z,46.30
2019-05-06T13:49:39.042Z,46.60
2019-05-06T13:52:13.698Z,46.40
2019-05-06T13:54:42.666Z,47.20
2019-05-06T13:57:12.446Z,46.80
2019-05-06T13:59:44.158Z,47.10
2019-05-06T14:02:47.743Z,47.70
2019-05-06T14:05:17.453Z,48.20
2019-05-06T14:07:46.434Z,47.80
2019-05-06T14:10:15.466Z,48.60
2019-05-06T14:12:44.489Z,49.20
2019-05-06T14:15:13.922Z,49.40
2019-05-06T14:17:42.809Z,49.50
2019-05-06T14:20:13.346Z,49.60
2019-05-06T14:22:43.768Z,49.30
2019-05-06T14:25:26.107Z,49.10
2019-05-06T14:27:58.538Z,49.30
2019-05-06T14:30:45.172Z,49.40
2019-05-06T14:33:16.003Z,49.60
2019-05-06T14:35:44.963Z,50.10
2019-05-06T14:38:13.835Z,49.80
2019-05-06T14:41:04.365Z,49.70
2019-05-06T14:43:32.509Z,50.30
2019-05-06T14:46:01.546Z,49.70
2019-05-06T14:48:32.916Z,49.90
2019-05-06T14:51:02.284Z,49.90
2019-05-06T14:53:33.132Z,50.00
2019-05-06T14:56:07.502Z,49.30
2019-05-06T14:58:36.421Z,48.60
2019-05-06T15:01:05.377Z,49.50
2019-05-06T15:03:34.352Z,49.60
2019-05-06T15:06:03.237Z,49.60
2019-05-06T15:08:32.356Z,49.40
2019-05-06T15:11:03.105Z,49.60
2019-05-06T15:13:32.335Z,49.50
2019-05-06T15:16:03.437Z,49.10
2019-05-06T15:18:32.243Z,48.90
2019-05-06T15:21:28.729Z,47.70
2019-05-06T15:23:31.690Z,48.50
2019-05-06T15:26:02.924Z,48.60
2019-05-06T15:28:33.597Z,48.10
2019-05-06T15:31:08.764Z,47.60
2019-05-06T15:33:40.446Z,48.20
2019-05-06T15:36:16.373Z,48.50
2019-05-06T15:38:45.666Z,47.40
2019-05-06T15:41:15.105Z,48.30
2019-05-06T15:43:43.925Z,48.40
2019-05-06T15:46:12.987Z,48.60
2019-05-06T15:48:42.183Z,49.50
2019-05-06T15:51:12.256Z,48.40
2019-05-06T15:53:42.161Z,47.90
2019-05-06T15:56:12.271Z,48.20
2019-05-06T15:58:42.303Z,48.60
2019-05-06T16:01:11.346Z,48.40
2019-05-06T16:03:42.894Z,48.20
2019-05-06T16:06:12.441Z,47.90
2019-05-06T16:08:42.766Z,48.00
2019-05-06T16:11:12.554Z,48.10
2019-05-06T16:13:42.559Z,48.30
2019-05-06T16:16:12.061Z,48.30
2019-05-06T16:18:42.304Z,47.30
2019-05-06T16:21:11.407Z,48.10
2019-05-06T16:23:44.882Z,48.60
2019-05-06T16:26:13.674Z,48.80
2019-05-06T16:28:45.025Z,49.00
2019-05-06T16:31:13.089Z,48.10
2019-05-06T16:33:43.082Z,48.10
2019-05-06T16:36:13.160Z,48.60
2019-05-06T16:38:42.836Z,48.80
2019-05-06T16:41:15.668Z,50.00
2019-05-06T16:43:42.764Z,49.60
2019-05-06T16:46:12.652Z,49.50
2019-05-06T16:48:45.005Z,49.60
2019-05-06T16:51:12.627Z,49.90
2019-05-06T16:53:42.949Z,50.00
2019-05-06T16:56:18.308Z,49.10
2019-05-06T16:58:53.898Z,49.90
2019-05-06T17:01:22.782Z,49.90
2019-05-06T17:04:14.572Z,50.40
2019-05-06T17:06:44.026Z,50.50
2019-05-06T17:09:20.753Z,49.90
2019-05-06T17:11:43.395Z,49.80
2019-05-06T17:14:12.438Z,50.50
2019-05-06T17:16:42.358Z,50.90
2019-05-06T17:19:12.699Z,50.80
2019-05-06T17:21:42.434Z,51.40
2019-05-06T17:24:13.037Z,53.10
2019-05-06T17:26:42.794Z,53.20
2019-05-06T17:29:22.696Z,53.70
2019-05-06T17:32:21.667Z,55.10
2019-05-06T17:34:52.776Z,56.20
2019-05-06T17:37:41.976Z,57.70
2019-05-06T17:40:14.030Z,57.00
2019-05-06T17:42:43.094Z,61.10
2019-05-06T17:45:32.204Z,67.60
2019-05-06T17:48:07.214Z,69.60
2019-05-06T17:51:15.566Z,70.60
2019-05-06T17:53:47.453Z,71.10
2019-05-06T17:56:16.432Z,73.90
2019-05-06T17:58:45.385Z,72.40
2019-05-06T18:01:16.619Z,68.70
2019-05-06T18:03:45.708Z,66.20
2019-05-06T18:06:14.629Z,72.40
2019-05-06T18:08:43.602Z,73.00
2019-05-06T18:11:13.061Z,72.00
2019-05-06T18:13:42.162Z,74.80
2019-05-06T18:16:12.962Z,73.70
2019-05-06T18:18:41.734Z,73.90
2019-05-06T18:21:12.347Z,78.60
2019-05-06T18:23:41.409Z,86.00
2019-05-06T18:26:10.470Z,91.20
2019-05-06T18:28:39.273Z,92.80
2019-05-06T18:31:08.109Z,91.60
2019-05-06T18:33:37.008Z,99.90
2019-05-06T18:36:06.425Z,99.90
2019-05-06T18:38:35.430Z,99.90
2019-05-06T18:41:04.290Z,97.00
2019-05-06T18:43:33.548Z,96.50
2019-05-06T18:46:02.918Z,96.40
2019-05-06T18:48:35.087Z,96.10
2019-05-06T18:51:03.155Z,97.80
2019-05-06T18:53:33.291Z,99.60
2019-05-06T18:56:03.217Z,99.90
2019-05-06T18:58:32.718Z,99.90
2019-05-06T19:01:03.869Z,99.90
2019-05-06T19:03:42.945Z,99.90
2019-05-06T19:06:11.959Z,99.90
2019-05-06T19:08:59.966Z,99.90
2019-05-06T19:11:29.213Z,99.00
2019-05-06T19:13:58.041Z,98.00
2019-05-06T19:16:26.857Z,97.60
2019-05-06T19:18:55.857Z,98.10
2019-05-06T19:21:24.986Z,98.30
2019-05-06T19:23:54.827Z,98.10
2019-05-06T19:26:23.918Z,97.80
2019-05-06T19:28:52.793Z,97.50
2019-05-06T19:31:22.814Z,97.10
2019-05-06T19:33:52.631Z,97.00
2019-05-06T19:36:23.530Z,96.30
2019-05-06T19:38:52.306Z,96.40
2019-05-06T19:41:22.361Z,96.70
2019-05-06T19:43:52.425Z,96.40
2019-05-06T19:46:21.555Z,97.30
2019-05-06T19:48:52.362Z,96.40
2019-05-06T19:51:22.544Z,96.50
2019-05-06T19:53:51.562Z,96.00
2019-05-06T19:56:20.359Z,96.40
2019-05-06T19:58:49.159Z,96.10
2019-05-06T20:01:18.111Z,95.60
2019-05-06T20:03:47.178Z,95.00
2019-05-06T20:06:35.038Z,95.10
2019-05-06T20:09:23.982Z,95.10
2019-05-06T20:11:55.313Z,95.50
2019-05-06T20:14:24.091Z,95.30
2019-05-06T20:16:53.061Z,94.70
2019-05-06T20:19:30.846Z,94.80
2019-05-06T20:21:52.790Z,94.90
2019-05-06T20:24:22.584Z,95.60
2019-05-06T20:26:52.749Z,94.90
2019-05-06T20:29:22.428Z,95.90
2019-05-06T20:31:53.485Z,95.00
2019-05-06T20:34:22.530Z,94.60
2019-05-06T20:36:52.833Z,95.10
2019-05-06T20:39:22.991Z,95.20
2019-05-06T20:41:51.970Z,95.30
2019-05-06T20:44:22.893Z,95.60
2019-05-06T20:46:52.704Z,96.10
2019-05-06T20:49:21.671Z,95.70
2019-05-06T20:52:09.738Z,96.00
2019-05-06T20:54:38.891Z,96.00
2019-05-06T20:57:07.680Z,96.20
2019-05-06T20:59:36.539Z,96.10
2019-05-06T21:02:05.385Z,96.00
2019-05-06T21:04:34.266Z,96.30
2019-05-06T21:07:03.146Z,96.50
2019-05-06T21:09:32.139Z,96.50
2019-05-06T21:12:01.139Z,96.50
2019-05-06T21:14:32.226Z,96.90
2019-05-06T21:17:02.509Z,96.00
2019-05-06T21:19:32.947Z,97.00
2019-05-06T21:22:02.302Z,96.60
2019-05-06T21:24:32.507Z,96.70
2019-05-06T21:27:02.784Z,96.80
2019-05-06T21:29:32.453Z,96.90
2019-05-06T21:32:02.726Z,97.50
2019-05-06T21:34:32.811Z,97.80
2019-05-06T21:37:03.087Z,97.80
2019-05-06T21:39:32.775Z,97.30
2019-05-06T21:42:01.873Z,97.40
2019-05-06T21:44:32.471Z,97.00
2019-05-06T21:47:02.914Z,97.20
2019-05-06T21:49:32.783Z,97.10
2019-05-06T21:52:02.257Z,97.10
2019-05-06T21:54:32.746Z,97.50
2019-05-06T21:57:02.919Z,97.80
2019-05-06T21:59:31.938Z,97.60
2019-05-06T22:02:00.866Z,98.00
2019-05-06T22:04:29.672Z,98.00
2019-05-06T22:06:58.528Z,97.30
2019-05-06T22:09:27.388Z,98.20
2019-05-06T22:11:56.273Z,97.50
2019-05-06T22:14:25.131Z,97.90
2019-05-06T22:16:54.006Z,98.20
2019-05-06T22:19:22.793Z,98.10
2019-05-06T22:22:03.471Z,98.50
2019-05-06T22:24:44.291Z,98.50
2019-05-06T22:27:13.219Z,98.20
2019-05-06T22:29:42.678Z,98.80
2019-05-06T22:32:14.834Z,98.80
2019-05-06T22:34:42.708Z,98.50
2019-05-06T22:37:12.558Z,98.70
2019-05-06T22:39:43.511Z,98.80
2019-05-06T22:42:12.633Z,98.80
2019-05-06T22:44:42.918Z,99.50
2019-05-06T22:47:12.270Z,99.30
2019-05-06T22:49:41.158Z,99.20
2019-05-06T22:52:09.945Z,99.10
2019-05-06T22:54:38.721Z,99.40
2019-05-06T22:57:07.514Z,99.70
2019-05-06T22:59:36.536Z,99.70
2019-05-06T23:02:23.016Z,99.80
2019-05-06T23:04:55.157Z,99.70
2019-05-06T23:07:24.325Z,99.90
2019-05-06T23:09:53.261Z,99.50
2019-05-06T23:12:23.152Z,99.90
2019-05-06T23:14:52.808Z,99.90
2019-05-06T23:17:21.859Z,99.90
2019-05-06T23:19:52.724Z,99.90
2019-05-06T23:22:22.758Z,99.90
2019-05-06T23:24:54.024Z,99.90
2019-05-06T23:27:23.242Z,99.90
2019-05-06T23:29:52.610Z,99.90
2019-05-06T23:32:22.951Z,99.90
2019-05-06T23:34:52.435Z,99.90
2019-05-06T23:37:22.748Z,99.90
2019-05-06T23:40:52.551Z,99.90
2019-05-06T23:43:57.261Z,99.90
2019-05-06T23:47:04.675Z,99.90
2019-05-06T23:50:09.731Z,99.90
2019-05-06T23:53:15.014Z,99.90
2019-05-06T23:56:20.656Z,99.90
2019-05-06T23:58:49.448Z,99.90
